createdAt,value
2024-03-05T00:00:30.146Z,39.10
2024-03-05T00:03:01.934Z,27.17
2024-03-05T00:05:33.940Z,38.17
2024-03-05T00:08:06.453Z,35.97
2024-03-05T00:10:38.212Z,28.80
2024-03-05T00:13:10.235Z,32.77
2024-03-05T00:15:42.554Z,32.60
2024-03-05T00:18:14.300Z,32.90
2024-03-05T00:20:46.075Z,28.20
2024-03-05T00:23:17.891Z,34.90
2024-03-05T00:25:49.698Z,36.43
2024-03-05T00:28:21.504Z,36.50
2024-03-05T00:30:54.451Z,36.05
2024-03-05T00:33:26.413Z,33.60
2024-03-05T00:35:58.190Z,27.60
2024-03-05T00:38:33.694Z,42.67
2024-03-05T00:41:07.279Z,44.90
2024-03-05T00:43:39.089Z,27.53
2024-03-05T00:46:10.909Z,36.80
2024-03-05T00:48:42.623Z,34.40
2024-03-05T00:51:14.388Z,35.23
2024-03-05T00:53:46.198Z,25.90
2024-03-05T00:56:18.004Z,48.17
2024-03-05T00:58:49.766Z,32.50
2024-03-05T01:01:22.183Z,31.50
2024-03-05T01:03:54.022Z,35.27
2024-03-05T01:06:25.800Z,41.93
2024-03-05T01:08:57.560Z,37.17
2024-03-05T01:11:31.472Z,33.97
2024-03-05T01:14:03.249Z,31.30
2024-03-05T01:16:35.182Z,34.00
2024-03-05T01:19:07.949Z,32.57
2024-03-05T01:21:42.167Z,33.80
2024-03-05T01:24:13.913Z,34.10
2024-03-05T01:26:45.603Z,26.00
2024-03-05T01:29:18.550Z,25.87
2024-03-05T01:31:57.302Z,35.20
2024-03-05T01:34:30.039Z,36.47
2024-03-05T01:37:02.543Z,29.43
2024-03-05T01:39:34.251Z,34.38
2024-03-05T01:42:09.059Z,27.07
2024-03-05T01:44:40.826Z,26.50
2024-03-05T01:47:12.743Z,34.77
2024-03-05T01:49:44.801Z,37.90
2024-03-05T01:52:16.904Z,21.53
2024-03-05T01:54:50.569Z,25.93
2024-03-05T01:57:24.698Z,34.40
2024-03-05T01:59:56.846Z,33.10
2024-03-05T02:02:28.692Z,31.67
2024-03-05T02:05:00.726Z,27.47
2024-03-05T02:07:33.584Z,24.57
2024-03-05T02:10:08.755Z,29.90
2024-03-05T02:12:43.376Z,31.67
2024-03-05T02:15:15.517Z,26.43
2024-03-05T02:17:47.268Z,36.80
2024-03-05T02:20:19.001Z,44.63
2024-03-05T02:22:50.787Z,35.80
2024-03-05T02:25:22.658Z,31.63
2024-03-05T02:27:54.496Z,20.93
2024-03-05T02:30:26.296Z,24.70
2024-03-05T02:32:58.399Z,26.80
2024-03-05T02:35:30.131Z,34.63
2024-03-05T02:38:01.883Z,27.10
2024-03-05T02:40:33.746Z,23.90
2024-03-05T02:43:06.833Z,35.47
2024-03-05T02:45:38.522Z,32.70
2024-03-05T02:48:10.412Z,28.63
2024-03-05T02:50:42.201Z,30.37
2024-03-05T02:53:13.877Z,30.20
2024-03-05T02:55:45.771Z,32.87
2024-03-05T02:58:18.069Z,34.17
2024-03-05T03:00:50.966Z,34.40
2024-03-05T03:03:22.808Z,46.33
2024-03-05T03:05:54.524Z,42.40
2024-03-05T03:08:26.229Z,39.40
2024-03-05T03:10:58.300Z,46.87
2024-03-05T03:13:30.180Z,37.97
2024-03-05T03:16:01.935Z,38.83
2024-03-05T03:18:33.659Z,49.83
2024-03-05T03:21:05.948Z,35.47
2024-03-05T03:23:37.740Z,48.83
2024-03-05T03:26:10.533Z,45.10
2024-03-05T03:28:43.113Z,50.80
2024-03-05T03:31:14.959Z,43.20
2024-03-05T03:33:46.679Z,37.17
2024-03-05T03:36:24.727Z,43.30
2024-03-05T03:38:56.531Z,37.10
2024-03-05T03:41:28.261Z,49.40
2024-03-05T03:44:00.954Z,52.80
2024-03-05T03:46:32.701Z,47.17
2024-03-05T03:49:08.810Z,43.47
2024-03-05T03:51:40.480Z,46.83
2024-03-05T03:54:12.530Z,43.83
2024-03-05T03:56:44.263Z,28.90
2024-03-05T03:59:16.225Z,37.60
2024-03-05T04:01:51.497Z,37.97
2024-03-05T04:04:24.944Z,42.47
2024-03-05T04:06:56.923Z,47.90
2024-03-05T04:09:28.825Z,39.47
2024-03-05T04:12:00.689Z,40.13
2024-03-05T04:14:32.381Z,33.80
2024-03-05T04:17:05.973Z,41.53
2024-03-05T04:19:37.736Z,33.30
2024-03-05T04:22:09.542Z,41.80
2024-03-05T04:24:45.296Z,41.20
2024-03-05T04:27:19.682Z,44.60
2024-03-05T04:29:57.736Z,49.50
2024-03-05T04:32:29.811Z,34.03
2024-03-05T04:35:01.749Z,46.27
2024-03-05T04:37:33.629Z,44.53
2024-03-05T04:40:11.186Z,41.90
2024-03-05T04:42:42.969Z,44.20
2024-03-05T04:45:14.652Z,38.30
2024-03-05T04:47:46.494Z,47.27
2024-03-05T04:50:19.515Z,30.30
2024-03-05T04:52:53.770Z,52.27
2024-03-05T04:55:25.743Z,45.70
2024-03-05T04:57:57.507Z,46.77
2024-03-05T05:00:30.096Z,48.70
2024-03-05T05:03:01.788Z,28.27
2024-03-05T05:05:33.789Z,36.57
2024-03-05T05:08:06.004Z,47.17
2024-03-05T05:10:37.829Z,45.93
2024-03-05T05:13:10.353Z,55.17
2024-03-05T05:15:42.205Z,32.67
2024-03-05T05:18:15.326Z,33.90
2024-03-05T05:20:47.369Z,35.87
2024-03-05T05:23:19.065Z,41.07
2024-03-05T05:25:50.800Z,38.83
2024-03-05T05:28:23.520Z,53.37
2024-03-05T05:30:55.247Z,40.77
2024-03-05T05:33:27.043Z,39.43
2024-03-05T05:35:58.748Z,42.93
2024-03-05T05:38:30.855Z,33.47
2024-03-05T05:41:02.666Z,46.88
2024-03-05T05:43:34.669Z,38.97
2024-03-05T05:46:15.632Z,48.27
2024-03-05T05:48:50.282Z,32.70
2024-03-05T05:51:23.448Z,38.00
2024-03-05T05:53:56.009Z,35.83
2024-03-05T05:56:27.767Z,41.23
2024-03-05T05:58:59.628Z,55.00
2024-03-05T06:01:32.421Z,56.97
2024-03-05T06:04:07.355Z,48.07
2024-03-05T06:06:39.074Z,51.90
2024-03-05T06:09:10.950Z,33.83
2024-03-05T06:11:44.419Z,49.73
2024-03-05T06:14:16.552Z,51.57
2024-03-05T06:16:48.281Z,48.17
2024-03-05T06:19:20.022Z,50.13
2024-03-05T06:21:51.708Z,45.20
2024-03-05T06:24:23.847Z,59.63
2024-03-05T06:26:55.690Z,55.07
2024-03-05T06:29:27.385Z,40.73
2024-03-05T06:31:59.201Z,53.50
2024-03-05T06:34:31.857Z,51.20
2024-03-05T06:37:03.875Z,53.93
2024-03-05T06:39:42.858Z,45.57
2024-03-05T06:42:14.757Z,45.60
2024-03-05T06:44:51.666Z,51.87
2024-03-05T06:47:28.926Z,47.00
2024-03-05T06:50:02.618Z,49.87
2024-03-05T06:52:53.491Z,43.63
2024-03-05T06:55:43.876Z,50.37
2024-03-05T06:58:15.612Z,53.77
2024-03-05T07:00:47.774Z,51.60
2024-03-05T07:03:19.496Z,61.40
2024-03-05T07:05:51.333Z,48.83
2024-03-05T07:08:26.033Z,43.23
2024-03-05T07:10:59.443Z,58.40
2024-03-05T07:13:31.346Z,48.90
2024-03-05T07:16:04.749Z,48.10
2024-03-05T07:18:37.577Z,46.53
2024-03-05T07:21:09.586Z,44.90
2024-03-05T07:23:41.478Z,39.87
2024-03-05T07:26:14.181Z,51.23
2024-03-05T07:28:46.105Z,60.73
2024-03-05T07:31:20.119Z,45.50
2024-03-05T07:33:53.751Z,47.17
2024-03-05T07:36:25.940Z,42.77
2024-03-05T07:38:58.096Z,35.43
2024-03-05T07:41:34.484Z,50.70
2024-03-05T07:44:07.130Z,40.97
2024-03-05T07:46:38.950Z,42.20
2024-03-05T07:49:10.710Z,48.33
2024-03-05T07:51:45.388Z,40.00
2024-03-05T07:54:17.689Z,49.30
2024-03-05T07:56:49.334Z,35.37
2024-03-05T07:59:21.026Z,42.27
2024-03-05T08:01:52.990Z,40.00
2024-03-05T08:04:24.795Z,45.27
2024-03-05T08:06:58.575Z,39.83
2024-03-05T08:09:31.077Z,55.77
2024-03-05T08:12:04.100Z,41.83
2024-03-05T08:14:35.852Z,35.30
2024-03-05T08:17:09.723Z,42.47
2024-03-05T08:19:42.588Z,33.55
2024-03-05T08:22:14.347Z,44.00
2024-03-05T08:24:45.999Z,28.83
2024-03-05T08:27:17.896Z,46.33
2024-03-05T08:29:51.038Z,35.57
2024-03-05T08:32:23.458Z,33.93
2024-03-05T08:34:55.269Z,33.47
2024-03-05T08:37:27.006Z,36.87
2024-03-05T08:39:59.184Z,31.17
2024-03-05T08:42:30.846Z,29.10
2024-03-05T08:45:04.658Z,32.57
2024-03-05T08:47:36.909Z,33.13
2024-03-05T08:50:08.780Z,24.60
2024-03-05T08:52:41.863Z,20.03
2024-03-05T08:55:15.287Z,29.43
2024-03-05T08:57:47.044Z,22.33
2024-03-05T09:00:32.387Z,30.10
2024-03-05T09:03:15.588Z,25.77
2024-03-05T09:05:48.445Z,25.20
2024-03-05T09:08:20.307Z,15.70
2024-03-05T09:10:52.117Z,33.40
2024-03-05T09:13:23.964Z,24.80
2024-03-05T09:15:55.687Z,23.60
2024-03-05T09:18:27.375Z,26.73
2024-03-05T09:20:59.082Z,24.57
2024-03-05T09:23:36.425Z,17.67
2024-03-05T09:26:11.680Z,19.73
2024-03-05T09:28:43.506Z,19.50
2024-03-05T09:31:15.531Z,19.83
2024-03-05T09:33:47.204Z,13.27
2024-03-05T09:36:18.986Z,19.57
2024-03-05T09:38:50.708Z,11.90
2024-03-05T09:41:22.763Z,18.03
2024-03-05T09:43:57.773Z,12.63
2024-03-05T09:46:31.743Z,11.30
2024-03-05T09:49:11.043Z,12.23
2024-03-05T09:51:48.917Z,29.07
2024-03-05T09:54:20.671Z,20.00
2024-03-05T09:56:55.120Z,12.13
2024-03-05T09:59:26.882Z,12.07
2024-03-05T10:02:00.079Z,11.03
2024-03-05T10:04:35.263Z,11.73
2024-03-05T10:07:08.607Z,8.43
2024-03-05T10:09:40.411Z,10.40
2024-03-05T10:12:14.438Z,6.67
2024-03-05T10:14:46.346Z,12.27
2024-03-05T10:17:18.019Z,12.27
2024-03-05T10:19:49.853Z,11.95
2024-03-05T10:22:21.590Z,15.47
2024-03-05T10:24:53.441Z,15.03
2024-03-05T10:27:29.206Z,14.03
2024-03-05T10:30:00.951Z,8.57
2024-03-05T10:32:32.718Z,13.77
2024-03-05T10:35:05.749Z,9.47
2024-03-05T10:37:37.532Z,9.20
2024-03-05T10:40:10.604Z,10.55
2024-03-05T10:42:43.389Z,9.00
2024-03-05T10:45:16.589Z,10.57
2024-03-05T10:47:51.552Z,8.10
2024-03-05T10:50:26.144Z,10.63
2024-03-05T10:52:59.090Z,11.73
2024-03-05T10:55:35.280Z,10.53
2024-03-05T10:58:10.245Z,9.63
2024-03-05T11:00:43.500Z,10.47
2024-03-05T11:03:17.876Z,19.73
2024-03-05T11:05:51.620Z,12.53
2024-03-05T11:08:30.383Z,7.87
2024-03-05T11:11:10.997Z,11.30
2024-03-05T11:13:43.980Z,9.03
2024-03-05T11:16:16.372Z,5.97
2024-03-05T11:18:48.256Z,5.90
2024-03-05T11:21:23.497Z,6.60
2024-03-05T11:23:58.678Z,5.10
2024-03-05T11:26:30.719Z,6.87
2024-03-05T11:29:22.945Z,5.50
2024-03-05T11:31:54.721Z,8.53
2024-03-05T11:34:29.111Z,8.60
2024-03-05T11:37:10.517Z,5.70
2024-03-05T11:39:44.348Z,5.80
2024-03-05T11:42:20.572Z,6.50
2024-03-05T11:44:53.831Z,4.20
2024-03-05T11:47:25.796Z,5.63
2024-03-05T11:50:04.973Z,4.27
2024-03-05T11:52:37.538Z,4.03
2024-03-05T11:55:10.714Z,5.30
2024-03-05T11:57:44.686Z,4.70
2024-03-05T12:00:17.721Z,4.20
2024-03-05T12:02:56.188Z,2.60
2024-03-05T12:05:31.018Z,3.10
2024-03-05T12:08:11.993Z,2.80
2024-03-05T12:10:43.878Z,3.00
2024-03-05T12:13:19.873Z,2.57
2024-03-05T12:15:51.876Z,2.93
2024-03-05T12:18:25.726Z,2.30
2024-03-05T12:20:57.488Z,2.00
2024-03-05T12:23:41.250Z,1.60
2024-03-05T12:26:14.959Z,2.20
2024-03-05T12:28:46.804Z,1.73
2024-03-05T12:31:19.606Z,2.07
2024-03-05T12:33:51.332Z,2.07
2024-03-05T12:36:23.129Z,4.50
2024-03-05T12:38:58.131Z,2.43
2024-03-05T12:41:29.849Z,1.70
2024-03-05T12:44:02.090Z,2.60
2024-03-05T12:46:33.935Z,3.40
2024-03-05T12:49:08.845Z,2.33
2024-03-05T12:51:40.534Z,2.43
2024-03-05T12:54:13.247Z,2.30
2024-03-05T12:56:46.563Z,2.33
2024-03-05T12:59:20.256Z,2.23
2024-03-05T13:01:55.157Z,3.13
2024-03-05T13:04:27.566Z,2.67
2024-03-05T13:06:59.473Z,2.87
2024-03-05T13:09:31.206Z,3.80
2024-03-05T13:12:03.087Z,2.97
2024-03-05T13:14:35.080Z,2.30
2024-03-05T13:17:08.303Z,2.53
2024-03-05T13:19:40.171Z,2.97
2024-03-05T13:22:14.892Z,2.13
2024-03-05T13:24:46.875Z,2.30
2024-03-05T13:27:18.680Z,4.63
2024-03-05T13:29:55.956Z,2.10
2024-03-05T13:32:33.400Z,1.83
2024-03-05T13:35:08.078Z,2.87
2024-03-05T13:37:40.977Z,2.17
2024-03-05T13:40:14.095Z,2.47
2024-03-05T13:42:49.423Z,2.47
2024-03-05T13:45:21.204Z,2.47
2024-03-05T13:47:55.228Z,2.57
2024-03-05T13:50:28.637Z,2.60
2024-03-05T13:53:00.551Z,2.87
2024-03-05T13:55:32.381Z,3.10
2024-03-05T13:58:05.236Z,3.53
2024-03-05T14:00:39.061Z,2.87
2024-03-05T14:03:14.705Z,3.83
2024-03-05T14:05:48.061Z,3.10
2024-03-05T14:08:19.833Z,3.30
2024-03-05T14:10:51.630Z,2.53
2024-03-05T14:13:23.556Z,2.67
2024-03-05T14:15:55.511Z,2.20
2024-03-05T14:18:27.414Z,3.30
2024-03-05T14:20:59.167Z,3.53
2024-03-05T14:23:32.019Z,3.57
2024-03-05T14:26:05.565Z,3.30
2024-03-05T14:28:37.524Z,3.00
2024-03-05T14:31:09.231Z,3.10
2024-03-05T14:33:41.340Z,3.10
2024-03-05T14:36:15.160Z,3.10
2024-03-05T14:38:47.422Z,3.03
2024-03-05T14:41:19.245Z,2.50
2024-03-05T14:43:51.580Z,3.10
2024-03-05T14:46:25.872Z,3.27
2024-03-05T14:48:57.681Z,2.60
2024-03-05T14:51:29.943Z,3.60
2024-03-05T14:54:02.483Z,2.07
2024-03-05T14:56:37.912Z,2.20
2024-03-05T14:59:10.241Z,1.90
2024-03-05T15:01:42.079Z,2.00
2024-03-05T15:04:13.806Z,4.53
2024-03-05T15:06:45.898Z,4.40
2024-03-05T15:09:18.843Z,3.20
2024-03-05T15:11:50.768Z,3.50
2024-03-05T15:14:22.559Z,2.70
2024-03-05T15:16:54.298Z,2.33
2024-03-05T15:19:26.173Z,2.25
2024-03-05T15:22:00.922Z,2.83
2024-03-05T15:24:32.813Z,2.50
2024-03-05T15:27:06.207Z,7.03
2024-03-05T15:29:39.623Z,2.30
2024-03-05T15:32:11.455Z,2.50
2024-03-05T15:34:43.165Z,3.17
2024-03-05T15:37:15.048Z,3.00
2024-03-05T15:39:46.786Z,2.60
2024-03-05T15:42:18.601Z,3.13
2024-03-05T15:44:50.341Z,3.40
2024-03-05T15:47:22.192Z,2.60
2024-03-05T15:49:53.951Z,2.95
2024-03-05T15:52:25.875Z,3.03
2024-03-05T15:54:57.562Z,4.90
2024-03-05T15:57:42.750Z,2.37
2024-03-05T16:00:17.319Z,2.53
2024-03-05T16:02:49.406Z,2.33
2024-03-05T16:05:28.948Z,2.40
2024-03-05T16:08:08.846Z,2.50
2024-03-05T16:10:48.388Z,2.57
2024-03-05T16:13:21.437Z,2.00
2024-03-05T16:15:54.030Z,2.37
2024-03-05T16:18:25.865Z,2.23
2024-03-05T16:21:02.551Z,2.67
2024-03-05T16:23:34.579Z,2.33
2024-03-05T16:26:06.500Z,2.83
2024-03-05T16:28:39.415Z,2.27
2024-03-05T16:31:14.362Z,2.30
2024-03-05T16:33:46.407Z,2.93
2024-03-05T16:36:18.580Z,2.43
2024-03-05T16:38:50.254Z,2.60
2024-03-05T16:41:22.176Z,2.00
2024-03-05T16:43:55.081Z,2.80
2024-03-05T16:46:26.887Z,2.37
2024-03-05T16:49:00.411Z,2.50
2024-03-05T16:51:32.112Z,2.73
2024-03-05T16:54:03.906Z,2.20
2024-03-05T16:56:35.592Z,2.00
2024-03-05T16:59:08.655Z,2.40
2024-03-05T17:01:40.454Z,2.20
2024-03-05T17:04:15.609Z,3.50
2024-03-05T17:06:47.402Z,1.90
2024-03-05T17:09:19.078Z,3.03
2024-03-05T17:11:51.858Z,19.50
2024-03-05T17:14:25.534Z,17.20
2024-03-05T17:16:58.576Z,5.10
2024-03-05T17:19:30.426Z,4.00
2024-03-05T17:22:04.573Z,5.10
2024-03-05T17:24:36.550Z,4.07
2024-03-05T17:27:08.225Z,4.10
2024-03-05T17:29:40.967Z,3.47
2024-03-05T17:32:12.769Z,2.90
2024-03-05T17:34:44.627Z,5.07
2024-03-05T17:37:16.362Z,4.80
2024-03-05T17:39:49.215Z,5.17
2024-03-05T17:42:21.134Z,3.90
2024-03-05T17:44:52.857Z,5.80
2024-03-05T17:47:24.723Z,9.63
2024-03-05T17:49:57.195Z,6.20
2024-03-05T17:52:29.069Z,2.97
2024-03-05T17:55:06.848Z,3.20
2024-03-05T17:57:43.649Z,4.30
2024-03-05T18:00:22.997Z,2.93
2024-03-05T18:02:56.597Z,3.00
2024-03-05T18:05:29.197Z,3.07
2024-03-05T18:08:01.694Z,3.67
2024-03-05T18:10:35.707Z,3.90
2024-03-05T18:13:08.209Z,4.90
2024-03-05T18:15:40.286Z,3.63
2024-03-05T18:18:15.281Z,7.97
2024-03-05T18:20:47.645Z,3.93
2024-03-05T18:23:19.463Z,6.30
2024-03-05T18:25:51.266Z,3.00
2024-03-05T18:28:23.709Z,3.60
2024-03-05T18:30:55.587Z,3.20
2024-03-05T18:33:27.394Z,4.57
2024-03-05T18:36:00.150Z,3.30
2024-03-05T18:38:32.109Z,2.80
2024-03-05T18:41:04.174Z,3.60
2024-03-05T18:43:35.907Z,2.70
2024-03-05T18:46:07.673Z,3.90
2024-03-05T18:48:40.101Z,2.70
2024-03-05T18:51:11.899Z,2.77
2024-03-05T18:53:49.226Z,3.30
2024-03-05T18:56:21.822Z,3.03
2024-03-05T18:58:55.821Z,2.90
2024-03-05T19:01:29.327Z,3.07
2024-03-05T19:04:05.446Z,3.20
2024-03-05T19:06:40.500Z,3.67
2024-03-05T19:09:12.507Z,3.87
2024-03-05T19:11:44.747Z,4.50
2024-03-05T19:14:18.556Z,3.60
2024-03-05T19:16:50.613Z,4.33
2024-03-05T19:19:22.915Z,2.90
2024-03-05T19:21:56.581Z,3.80
2024-03-05T19:24:29.957Z,6.50
2024-03-05T19:27:01.843Z,3.30
2024-03-05T19:29:33.636Z,6.80
2024-03-05T19:32:06.229Z,4.45
2024-03-05T19:34:38.090Z,4.17
2024-03-05T19:37:11.051Z,4.50
2024-03-05T19:39:42.959Z,3.40
2024-03-05T19:42:14.636Z,4.50
2024-03-05T19:44:47.253Z,4.70
2024-03-05T19:47:18.918Z,4.10
2024-03-05T19:49:50.656Z,4.07
2024-03-05T19:52:23.604Z,5.72
2024-03-05T19:54:55.311Z,4.50
2024-03-05T19:57:27.043Z,5.27
2024-03-05T20:00:02.428Z,4.53
2024-03-05T20:02:38.238Z,4.50
2024-03-05T20:05:10.052Z,3.90
2024-03-05T20:07:42.348Z,4.70
2024-03-05T20:10:15.361Z,4.07
2024-03-05T20:12:47.918Z,5.23
2024-03-05T20:15:20.586Z,3.58
2024-03-05T20:17:54.014Z,3.77
2024-03-05T20:20:25.832Z,3.60
2024-03-05T20:22:57.748Z,5.57
2024-03-05T20:25:29.449Z,3.83
2024-03-05T20:28:04.103Z,3.83
2024-03-05T20:30:36.054Z,3.73
2024-03-05T20:33:07.786Z,3.33
2024-03-05T20:35:40.593Z,3.57
2024-03-05T20:38:12.846Z,5.33
2024-03-05T20:40:44.789Z,5.73
2024-03-05T20:43:16.778Z,3.65
2024-03-05T20:45:48.466Z,3.70
2024-03-05T20:48:20.340Z,3.40
2024-03-05T20:50:52.218Z,3.40
2024-03-05T20:53:23.969Z,4.17
2024-03-05T20:55:55.733Z,4.17
2024-03-05T20:58:27.484Z,4.23
2024-03-05T21:00:59.518Z,4.60
2024-03-05T21:03:32.491Z,3.20
2024-03-05T21:06:04.597Z,3.30
2024-03-05T21:08:36.569Z,3.80
2024-03-05T21:11:08.506Z,3.60
2024-03-05T21:13:43.443Z,4.40
2024-03-05T21:16:15.369Z,3.47
2024-03-05T21:18:47.488Z,3.20
2024-03-05T21:21:19.324Z,3.50
2024-03-05T21:23:51.020Z,5.00
2024-03-05T21:26:35.510Z,4.87
2024-03-05T21:29:14.499Z,3.93
2024-03-05T21:31:47.971Z,3.97
2024-03-05T21:34:19.825Z,6.90
2024-03-05T21:36:51.645Z,5.43
2024-03-05T21:39:24.078Z,5.20
2024-03-05T21:41:56.274Z,6.43
2024-03-05T21:44:35.040Z,5.37
2024-03-05T21:47:13.636Z,4.97
2024-03-05T21:49:45.416Z,5.00
2024-03-05T21:52:17.363Z,5.43
2024-03-05T21:54:49.079Z,6.23
2024-03-05T21:57:20.861Z,5.10
2024-03-05T21:59:52.708Z,5.27
2024-03-05T22:02:24.552Z,7.60
2024-03-05T22:04:56.587Z,4.87
2024-03-05T22:07:29.553Z,4.97
2024-03-05T22:10:06.831Z,3.67
2024-03-05T22:12:38.723Z,8.43
2024-03-05T22:15:11.014Z,3.53
2024-03-05T22:17:42.968Z,4.03
2024-03-05T22:20:15.707Z,4.30
2024-03-05T22:22:47.579Z,3.37
2024-03-05T22:25:19.425Z,4.28
2024-03-05T22:27:51.884Z,3.70
2024-03-05T22:30:23.716Z,3.10
2024-03-05T22:32:56.532Z,4.20
2024-03-05T22:35:28.349Z,3.23
2024-03-05T22:38:00.143Z,4.47
2024-03-05T22:40:31.916Z,4.07
2024-03-05T22:43:03.711Z,3.63
2024-03-05T22:45:35.416Z,3.43
2024-03-05T22:48:07.686Z,4.80
2024-03-05T22:50:39.424Z,4.30
2024-03-05T22:53:11.199Z,4.00
2024-03-05T22:55:42.964Z,9.40
2024-03-05T22:58:15.136Z,4.03
2024-03-05T23:00:51.725Z,5.60
2024-03-05T23:03:23.781Z,5.00
2024-03-05T23:05:55.918Z,4.00
2024-03-05T23:08:27.829Z,3.87
2024-03-05T23:10:59.653Z,4.20
2024-03-05T23:13:31.949Z,3.50
2024-03-05T23:16:03.840Z,5.10
2024-03-05T23:18:35.565Z,3.70
2024-03-05T23:21:10.707Z,3.77
2024-03-05T23:23:45.381Z,3.77
2024-03-05T23:26:17.184Z,6.63
2024-03-05T23:28:49.416Z,3.80
2024-03-05T23:31:21.268Z,5.40
2024-03-05T23:33:52.952Z,4.53
2024-03-05T23:36:24.690Z,5.00
2024-03-05T23:38:56.393Z,7.73
2024-03-05T23:41:32.005Z,3.60
2024-03-05T23:44:04.303Z,7.77
2024-03-05T23:46:36.943Z,4.27
2024-03-05T23:49:08.726Z,3.73
2024-03-05T23:51:44.816Z,3.60
2024-03-05T23:54:16.569Z,3.23
2024-03-05T23:56:48.287Z,3.73
2024-03-05T23:59:20.006Z,4.50
